Time;durP1;ratioP1;P1;durP2;ratioP2;P2;SDS_P1;SDS_P2;PMS_P1;PMS_P2;Temp;Humidity;BMP_temperature;BMP_pressure;BME280_temperature;BME280_humidity;BME280_pressure;Samples;Min_cycle;Max_cycle;Signal;HPM_P1;HPM_P2
2023/03/21 00:02:02;;;;;;;70.68;21.23;;;;;;;;;;5050666;28;20430;-79
2023/03/21 00:04:29;;;;;;;86.75;22.45;;;;;;;;;;5049412;28;20494;-78
2023/03/21 00:06:55;;;;;;;106.50;25.67;;;;;;;;;;5050607;28;20416;-78
2023/03/21 00:09:22;;;;;;;135.43;28.52;;;;;;;;;;5040659;28;20435;-78
2023/03/21 00:11:48;;;;;;;151.00;30.55;;;;;;;;;;5041479;28;20492;-79
2023/03/21 00:14:17;;;;;;;185.32;32.45;;;;;;;;;;5015627;28;20419;-78
2023/03/21 00:16:44;;;;;;;199.90;35.50;;;;;;;;;;5034168;28;20520;-78
2023/03/21 00:19:11;;;;;;;205.63;34.85;;;;;;;;;;5052289;28;20419;-78
2023/03/21 00:21:41;;;;;;;193.00;35.13;;;;;;;;;;5051333;28;20424;-78
2023/03/21 00:24:07;;;;;;;208.25;35.38;;;;;;;;;;5057622;28;20489;-78
2023/03/21 00:26:33;;;;;;;213.15;36.05;;;;;;;;;;5037749;28;20419;-78
2023/03/21 00:29:00;;;;;;;206.23;37.23;;;;;;;;;;5055781;28;20450;-78
2023/03/21 00:31:26;;;;;;;201.63;37.05;;;;;;;;;;5054073;28;20449;-78
2023/03/21 00:33:52;;;;;;;198.48;35.35;;;;;;;;;;5039008;28;20428;-78
2023/03/21 00:36:18;;;;;;;205.93;36.67;;;;;;;;;;5055601;28;20415;-78
2023/03/21 00:38:44;;;;;;;202.48;37.33;;;;;;;;;;5053808;28;20494;-78
2023/03/21 00:41:13;;;;;;;211.57;36.40;;;8.80;99.90;;;;;;5053325;28;20477;-78
2023/03/21 00:43:40;;;;;;;221.80;37.35;;;;;;;;;;5052870;28;20451;-78
2023/03/21 00:46:06;;;;;;;245.27;38.65;;;;;;;;;;5054368;28;20515;-78
2023/03/21 00:48:32;;;;;;;224.93;37.08;;;;;;;;;;5054580;28;20419;-78
2023/03/21 00:50:59;;;;;;;180.30;34.28;;;;;;;;;;5037404;28;20419;-78
2023/03/21 00:53:25;;;;;;;195.10;35.58;;;;;;;;;;5055161;28;20519;-78
2023/03/21 00:55:52;;;;;;;158.73;33.35;;;;;;;;;;5054894;28;20419;-78
2023/03/21 00:58:18;;;;;;;135.32;30.85;;;;;;;;;;5035084;28;20415;-78
2023/03/21 01:00:47;;;;;;;122.70;28.85;;;;;;;;;;5035264;28;20923;-78
2023/03/21 01:03:15;;;;;;;110.70;27.03;;;9.20;99.90;;;;;;5037180;28;20491;-78
2023/03/21 01:08:28;;;;;;;101.07;28.10;;;;;;;;;;5054180;28;20411;-79
2023/03/21 01:10:54;;;;;;;109.05;28.45;;;;;;;;;;5053961;28;20489;-79
2023/03/21 01:13:22;;;;;;;126.78;30.73;;;;;;;;;;5035931;28;20419;-79
2023/03/21 01:15:50;;;;;;;118.30;29.90;;;;;;;;;;5036617;28;20472;-80
2023/03/21 01:18:17;;;;;;;115.20;28.55;;;;;;;;;;5025711;28;20438;-79
2023/03/21 01:20:44;;;;;;;110.70;29.23;;;;;;;;;;5038907;28;20502;-79
2023/03/21 01:23:10;;;;;;;103.37;27.80;;;;;;;;;;5053984;28;20529;-79
2023/03/21 01:25:36;;;;;;;105.03;28.42;;;;;;;;;;5053518;28;20415;-79
2023/03/21 01:28:03;;;;;;;104.72;28.52;;;;;;;;;;5055649;28;20800;-78
2023/03/21 01:30:29;;;;;;;92.72;26.77;;;;;;;;;;5052288;28;20427;-78
2023/03/21 01:32:55;;;;;;;96.28;27.55;;;;;;;;;;5035650;28;20784;-78
2023/03/21 01:35:21;;;;;;;98.97;28.85;;;;;;;;;;5053291;28;20424;-78
2023/03/21 01:37:48;;;;;;;109.03;30.10;;;;;;;;;;5056362;28;20396;-78
2023/03/21 01:40:20;;;;;;;94.28;29.42;;;;;;;;;;5054175;28;20420;-78
2023/03/21 01:42:46;;;;;;;102.30;30.25;;;;;;;;;;5055275;28;20435;-78
2023/03/21 01:45:31;;;;;;;89.40;28.93;;;;;;;;;;5052843;28;20432;-79
2023/03/21 01:47:57;;;;;;;90.60;29.65;;;;;;;;;;5049765;28;20423;-78
2023/03/21 01:50:25;;;;;;;87.47;29.98;;;;;;;;;;5033828;28;20419;-78
2023/03/21 01:52:51;;;;;;;75.40;27.93;;;;;;;;;;5054640;28;20488;-78
2023/03/21 01:55:18;;;;;;;77.20;27.98;;;;;;;;;;5053266;28;20415;-78
2023/03/21 01:57:51;;;;;;;75.95;27.80;;;;;;;;;;5037689;28;20407;-78
2023/03/21 02:00:19;;;;;;;71.63;27.75;;;;;;;;;;5052482;28;20948;-78
2023/03/21 02:02:56;;;;;;;64.10;25.63;;;;;;;;;;5054448;28;20399;-78
2023/03/21 02:05:32;;;;;;;65.80;26.00;;;;;;;;;;5053137;28;20516;-78
2023/03/21 02:07:59;;;;;;;60.83;25.08;;;;;;;;;;5037864;28;20838;-78
2023/03/21 02:10:26;;;;;;;63.47;26.48;;;;;;;;;;5035748;28;20419;-78
2023/03/21 02:12:54;;;;;;;56.22;25.10;;;;;;;;;;5031045;28;20431;-78
2023/03/21 02:15:21;;;;;;;53.47;23.92;;;;;;;;;;5053756;28;20427;-78
2023/03/21 02:17:50;;;;;;;52.55;23.98;;;;;;;;;;5053233;28;20454;-78
2023/03/21 02:20:20;;;;;;;49.73;23.67;;;;;;;;;;5050722;28;20416;-78
2023/03/21 02:23:01;;;;;;;48.75;23.55;;;;;;;;;;5054908;28;20400;-78
2023/03/21 02:25:46;;;;;;;46.78;23.67;;;;;;;;;;5036657;28;20494;-78
2023/03/21 02:28:12;;;;;;;47.35;23.40;;;;;;;;;;5053038;28;20424;-78
2023/03/21 02:31:13;;;;;;;48.03;23.57;;;9.50;99.90;;;;;;5057588;28;20412;-78
2023/03/21 02:33:51;;;;;;;45.10;22.92;;;;;;;;;;5009485;28;20423;-78
2023/03/21 02:36:33;;;;;;;42.47;22.20;;;;;;;;;;5059302;28;20448;-78
2023/03/21 02:39:26;;;;;;;44.30;23.35;;;9.50;99.90;;;;;;5047283;28;20438;-78
2023/03/21 02:41:55;;;;;;;42.80;23.02;;;;;;;;;;5064956;28;20426;-78
2023/03/21 02:44:34;;;;;;;43.08;22.70;;;9.40;99.90;;;;;;5065531;28;20472;-78
2023/03/21 02:47:07;;;;;;;42.17;21.93;;;;;;;;;;5054866;28;20455;-78
2023/03/21 02:49:53;;;;;;;39.88;21.83;;;;;;;;;;5065642;28;20426;-77
2023/03/21 02:52:20;;;;;;;39.05;20.83;;;;;;;;;;5047933;28;20428;-77
2023/03/21 02:54:48;;;;;;;38.25;21.00;;;;;;;;;;5063329;28;20431;-78
2023/03/21 02:57:16;;;;;;;38.97;20.65;;;;;;;;;;5044844;28;20415;-78
2023/03/21 02:59:42;;;;;;;39.13;21.33;;;;;;;;;;5067249;28;20408;-78
2023/03/21 03:02:08;;;;;;;40.28;21.38;;;;;;;;;;5065392;28;20403;-78
2023/03/21 03:04:34;;;;;;;38.50;20.60;;;;;;;;;;5051098;28;20459;-78
2023/03/21 03:07:00;;;;;;;37.20;19.80;;;;;;;;;;5030703;28;20484;-77
2023/03/21 03:09:27;;;;;;;37.47;20.05;;;;;;;;;;5039353;28;20779;-78
2023/03/21 03:11:59;;;;;;;39.58;20.00;;;;;;;;;;5036454;28;20416;-78
2023/03/21 03:14:29;;;;;;;37.70;19.73;;;;;;;;;;5054874;28;20521;-78
2023/03/21 03:17:14;;;;;;;36.42;18.58;;;;;;;;;;5037316;28;20407;-78
2023/03/21 03:20:00;;;;;;;39.57;20.07;;;;;;;;;;5033587;28;20423;-78
2023/03/21 03:22:28;;;;;;;37.88;19.77;;;;;;;;;;5050511;28;20462;-78
2023/03/21 03:25:09;;;;;;;40.30;19.55;;;;;;;;;;5051679;28;20419;-79
2023/03/21 03:27:39;;;;;;;37.40;18.80;;;;;;;;;;5052235;28;20499;-78
2023/03/21 03:30:07;;;;;;;38.42;19.25;;;;;;;;;;5041669;28;20979;-78
2023/03/21 03:32:56;;;;;;;36.67;18.30;;;;;;;;;;5070744;28;20413;-78
2023/03/21 03:35:23;;;;;;;42.38;19.00;;;;;;;;;;5040172;28;20419;-78
2023/03/21 03:37:52;;;;;;;36.55;17.67;;;;;;;;;;5035140;28;20423;-78
2023/03/21 03:40:25;;;;;;;41.05;17.92;;;;;;;;;;5049524;28;21006;-78
2023/03/21 03:42:52;;;;;;;42.05;18.35;;;;;;;;;;5053833;28;20435;-78
2023/03/21 03:45:19;;;;;;;40.22;17.85;;;;;;;;;;5051313;28;20424;-78
2023/03/21 03:47:58;;;;;;;37.17;17.20;;;;;;;;;;5036460;28;20436;-79
2023/03/21 03:50:29;;;;;;;35.90;16.20;;;;;;;;;;5035222;28;20516;-79
2023/03/21 03:53:00;;;;;;;37.60;16.80;;;;;;;;;;5052369;28;20515;-79
2023/03/21 03:55:33;;;;;;;35.80;15.65;;;;;;;;;;5025039;28;20428;-79
2023/03/21 03:57:59;;;;;;;41.03;16.75;;;;;;;;;;5045421;28;20780;-78
2023/03/21 04:00:26;;;;;;;36.88;15.77;;;;;;;;;;5056868;28;20431;-79
2023/03/21 04:02:53;;;;;;;41.65;16.77;;;;;;;;;;5056259;28;20415;-79
2023/03/21 04:05:20;;;;;;;40.70;16.77;;;;;;;;;;5056877;28;20458;-79
2023/03/21 04:07:49;;;;;;;45.58;17.98;;;;;;;;;;5055366;28;20419;-79
2023/03/21 04:10:16;;;;;;;78.03;19.50;;;;;;;;;;5023341;28;20445;-79
2023/03/21 04:12:42;;;;;;;42.90;17.27;;;;;;;;;;5055662;28;20424;-79
2023/03/21 04:15:08;;;;;;;43.65;17.85;;;;;;;;;;5035294;28;20919;-78
2023/03/21 04:17:35;;;;;;;42.78;16.98;;;;;;;;;;5057083;28;20513;-79
2023/03/21 04:20:04;;;;;;;48.92;17.25;;;;;;;;;;5054447;28;20927;-78
2023/03/21 04:22:31;;;;;;;43.38;17.42;;;;;;;;;;5056763;28;20415;-78
2023/03/21 04:24:57;;;;;;;48.38;18.02;;;;;;;;;;5037571;28;20475;-78
2023/03/21 04:27:23;;;;;;;46.55;18.25;;;;;;;;;;5039567;28;20415;-78
2023/03/21 04:29:49;;;;;;;46.03;17.77;;;;;;;;;;5038757;28;20430;-78
2023/03/21 04:32:16;;;;;;;154.20;29.38;;;;;;;;;;5038983;28;20419;-78
2023/03/21 04:34:48;;;;;;;48.97;19.30;;;;;;;;;;5053178;28;20832;-78
2023/03/21 04:37:16;;;;;;;50.17;18.90;;;9.30;99.90;;;;;;5054064;28;20981;-78
2023/03/21 04:39:42;;;;;;;49.28;18.88;;;;;;;;;;5021701;28;20891;-78
2023/03/21 04:42:08;;;;;;;50.10;19.83;;;;;;;;;;5039353;28;20484;-78
2023/03/21 04:44:34;;;;;;;55.25;20.75;;;;;;;;;;5035890;28;20411;-78
2023/03/21 04:47:00;;;;;;;57.05;20.98;;;;;;;;;;5053889;28;20423;-78
2023/03/21 04:49:26;;;;;;;59.63;22.10;;;;;;;;;;5054187;28;20443;-78
2023/03/21 04:51:52;;;;;;;61.17;21.88;;;;;;;;;;5055350;28;20419;-78
2023/03/21 04:54:19;;;;;;;61.67;22.88;;;;;;;;;;5037468;28;20503;-78
2023/03/21 04:56:45;;;;;;;60.58;22.90;;;;;;;;;;5040775;28;20416;-78
2023/03/21 04:59:13;;;;;;;66.65;22.95;;;;;;;;;;5055289;28;20416;-78
2023/03/21 05:01:42;;;;;;;69.20;23.83;;;;;;;;;;5036517;28;20924;-78
2023/03/21 05:04:09;;;;;;;76.50;25.75;;;;;;;;;;5054822;28;20938;-78
2023/03/21 05:06:35;;;;;;;67.95;23.90;;;;;;;;;;5053416;28;20914;-78
2023/03/21 05:09:05;;;;;;;70.55;25.23;;;;;;;;;;5039280;28;20404;-78
2023/03/21 05:11:34;;;;;;;70.45;24.02;;;;;;;;;;5037531;28;20432;-78
2023/03/21 05:14:00;;;;;;;75.75;25.75;;;;;;;;;;5038810;28;20415;-78
2023/03/21 05:16:29;;;;;;;70.85;24.30;;;;;;;;;;5037067;28;20431;-79
2023/03/21 05:18:57;;;;;;;62.83;22.33;;;;;;;;;;5049110;28;20416;-79
2023/03/21 05:21:28;;;;;;;62.38;23.77;;;;;;;;;;5055708;28;20755;-79
2023/03/21 05:23:54;;;;;;;62.72;22.63;;;;;;;;;;5055294;28;20400;-78
2023/03/21 05:26:21;;;;;;;61.33;21.95;;;;;;;;;;5053644;28;20416;-78
2023/03/21 05:28:48;;;;;;;54.13;20.63;;;;;;;;;;5036890;28;20415;-78
2023/03/21 05:31:15;;;;;;;54.38;20.25;;;;;;;;;;5052129;28;20430;-79
2023/03/21 05:33:42;;;;;;;47.90;19.23;;;;;;;;;;5037846;28;20416;-78
2023/03/21 05:36:08;;;;;;;46.58;19.40;;;;;;;;;;5036879;28;20511;-77
2023/03/21 05:38:34;;;;;;;47.28;19.23;;;;;;;;;;5052057;28;20473;-78
2023/03/21 05:41:00;;;;;;;47.58;19.13;;;;;;;;;;5038296;28;20450;-77
2023/03/21 05:43:26;;;;;;;50.20;19.50;;;;;;;;;;5020423;28;20449;-78
2023/03/21 05:45:52;;;;;;;47.75;19.20;;;;;;;;;;5053894;28;20911;-78
2023/03/21 05:48:19;;;;;;;45.03;18.58;;;;;;;;;;5052408;28;20415;-77
2023/03/21 05:50:45;;;;;;;49.00;19.52;;;;;;;;;;5055486;28;20419;-77
2023/03/21 05:53:11;;;;;;;44.95;19.30;;;;;;;;;;5035739;28;20426;-78
2023/03/21 05:55:37;;;;;;;47.03;19.57;;;;;;;;;;5038763;28;21192;-79
2023/03/21 05:58:04;;;;;;;67.53;22.08;;;;;;;;;;5037341;28;20423;-79
2023/03/21 06:00:30;;;;;;;53.55;21.60;;;;;;;;;;5037612;28;20424;-78
2023/03/21 06:02:56;;;;;;;54.00;20.95;;;;;;;;;;5052656;28;20418;-79
2023/03/21 06:05:22;;;;;;;132.63;28.95;;;;;;;;;;5039635;28;20489;-78
2023/03/21 06:07:48;;;;;;;55.72;21.67;;;;;;;;;;5011096;28;20416;-78
2023/03/21 06:10:14;;;;;;;57.85;23.38;;;;;;;;;;5036367;28;20474;-78
2023/03/21 06:12:42;;;;;;;60.70;23.38;;;;;;;;;;5052009;28;20419;-78
2023/03/21 06:15:08;;;;;;;84.80;23.80;;;;;;;;;;5052553;28;20907;-79
2023/03/21 06:17:34;;;;;;;51.15;22.38;;;;;;;;;;5010026;28;20421;-79
2023/03/21 06:20:03;;;;;;;55.78;24.27;;;;;;;;;;5049523;28;20454;-79
2023/03/21 06:22:29;;;;;;;79.88;24.63;;;;;;;;;;5040877;28;20398;-79
2023/03/21 06:24:55;;;;;;;68.05;25.65;;;;;;;;;;5015199;28;20425;-78
2023/03/21 06:27:21;;;;;;;80.50;27.00;;;;;;;;;;5047539;28;20485;-78
2023/03/21 06:29:47;;;;;;;53.50;23.42;;;;;;;;;;5035011;28;20412;-78
2023/03/21 06:32:15;;;;;;;319.17;43.40;;;;;;;;;;5031225;28;20427;-78
2023/03/21 06:34:41;;;;;;;182.55;34.55;;;;;;;;;;5051916;28;20448;-78
2023/03/21 06:37:07;;;;;;;100.45;26.92;;;;;;;;;;5050622;28;20487;-77
2023/03/21 06:39:33;;;;;;;121.68;28.75;;;;;;;;;;5052930;28;20469;-77
2023/03/21 06:41:59;;;;;;;55.08;24.13;;;;;;;;;;5049010;28;20419;-78
2023/03/21 06:44:26;;;;;;;52.42;23.45;;;;;;;;;;5033318;28;20415;-78
2023/03/21 06:46:52;;;;;;;53.00;23.27;;;;;;;;;;5024307;28;20930;-78
2023/03/21 06:49:18;;;;;;;62.03;24.73;;;;;;;;;;5014283;28;20449;-78
2023/03/21 06:51:44;;;;;;;68.50;24.35;;;;;;;;;;5029187;28;20432;-78
2023/03/21 06:54:11;;;;;;;50.33;22.43;;;;;;;;;;5010072;28;20419;-77
2023/03/21 06:56:37;;;;;;;50.03;22.48;;;;;;;;;;5045910;28;20433;-77
2023/03/21 06:59:03;;;;;;;72.82;23.90;;;;;;;;;;5046776;28;20888;-77
2023/03/21 07:01:29;;;;;;;52.80;23.35;;;;;;;;;;5049325;28;20436;-77
2023/03/21 07:03:57;;;;;;;45.03;20.52;;;;;;;;;;5049243;28;20425;-76
2023/03/21 07:06:27;;;;;;;43.43;20.20;;;;;;;;;;5031518;28;20500;-77
2023/03/21 07:08:54;;;;;;;39.22;18.77;;;;;;;;;;5017845;28;20401;-76
2023/03/21 07:11:20;;;;;;;39.95;18.90;;;;;;;;;;5031965;28;20500;-78
2023/03/21 07:13:47;;;;;;;36.92;17.90;;;;;;;;;;5033315;28;20401;-77
2023/03/21 07:16:14;;;;;;;36.50;18.23;;;;;;;;;;5050419;28;20420;-77
2023/03/21 07:18:40;;;;;;;32.83;16.90;;;;;;;;;;5049402;28;20485;-77
2023/03/21 07:21:07;;;;;;;32.38;16.42;;;;;;;;;;5049068;28;20844;-76
2023/03/21 07:23:33;;;;;;;31.13;16.08;;;;;;;;;;5044050;28;20512;-77
2023/03/21 07:26:00;;;;;;;30.30;16.10;;;;;;;;;;5010816;28;20417;-77
2023/03/21 07:28:26;;;;;;;31.90;17.67;;;;;;;;;;5044701;28;20496;-77
2023/03/21 07:30:53;;;;;;;27.17;15.18;;;;;;;;;;5046112;28;20413;-76
2023/03/21 07:33:19;;;;;;;28.00;15.43;;;;;;;;;;5033467;28;20491;-76
2023/03/21 07:35:46;;;;;;;27.87;14.53;;;;;;;;;;5048848;28;20429;-77
2023/03/21 07:38:13;;;;;;;23.23;13.80;;;;;;;;;;5033543;28;20433;-77
2023/03/21 07:40:39;;;;;;;24.90;13.90;;;;;;;;;;5035269;28;20516;-76
2023/03/21 07:43:05;;;;;;;23.27;13.50;;;;;;;;;;5052507;28;20426;-76
2023/03/21 07:45:31;;;;;;;24.95;14.43;;;;;;;;;;5039403;28;20419;-76
2023/03/21 07:47:57;;;;;;;24.05;13.77;;;;;;;;;;5038394;28;20447;-78
2023/03/21 07:50:24;;;;;;;21.77;12.68;;;;;;;;;;5055563;28;20473;-77
2023/03/21 07:52:50;;;;;;;19.95;12.80;;;;;;;;;;5036659;28;20420;-76
2023/03/21 07:55:16;;;;;;;18.63;12.17;;;;;;;;;;5054706;28;20525;-77
2023/03/21 07:57:42;;;;;;;20.10;12.55;;;;;;;;;;5034164;28;20945;-77
2023/03/21 08:00:09;;;;;;;20.42;12.40;;;;;;;;;;5037790;28;20415;-77
2023/03/21 08:02:35;;;;;;;20.98;12.45;;;;;;;;;;5054660;28;20472;-78
2023/03/21 08:05:02;;;;;;;20.23;12.75;;;;;;;;;;5054630;28;20915;-77
2023/03/21 08:07:29;;;;;;;19.13;12.10;;;;;;;;;;5055039;28;20527;-77
2023/03/21 08:09:55;;;;;;;18.60;11.80;;;;;;;;;;5056726;28;20418;-77
2023/03/21 08:12:21;;;;;;;19.83;12.30;;;;;;;;;;5038173;28;20455;-77
2023/03/21 08:14:48;;;;;;;17.95;11.90;;;;;;;;;;5039689;28;20505;-77
2023/03/21 08:17:14;;;;;;;17.13;11.43;;;;;;;;;;5038931;28;20434;-78
2023/03/21 08:19:40;;;;;;;17.02;11.20;;;;;;;;;;5055540;28;20415;-78
2023/03/21 08:22:06;;;;;;;17.48;11.05;;;;;;;;;;5037580;28;20415;-77
2023/03/21 08:24:33;;;;;;;17.50;10.70;;;;;;;;;;5021329;28;20422;-77
2023/03/21 08:26:59;;;;;;;15.98;10.27;;;;;;;;;;5052040;28;20420;-77
2023/03/21 08:29:26;;;;;;;15.43;10.50;;;;;;;;;;5035676;28;20505;-77
2023/03/21 08:31:52;;;;;;;16.25;10.93;;;;;;;;;;5021574;28;20450;-77
2023/03/21 08:34:18;;;;;;;16.05;10.80;;;;;;;;;;5034999;28;20447;-77
2023/03/21 08:36:45;;;;;;;16.08;11.25;;;;;;;;;;5037977;28;20449;-80
2023/03/21 08:39:12;;;;;;;19.52;12.35;;;;;;;;;;5018821;28;20435;-79
2023/03/21 08:41:38;;;;;;;17.10;12.38;;;;;;;;;;5020228;28;20459;-78
2023/03/21 08:44:05;;;;;;;21.17;13.30;;;;;;;;;;5036544;28;20404;-78
2023/03/21 08:46:32;;;;;;;21.15;14.25;;;;;;;;;;5049453;28;20423;-78
2023/03/21 08:48:58;;;;;;;21.95;13.98;;;;;;;;;;5036378;28;20470;-78
2023/03/21 08:51:24;;;;;;;21.23;14.18;;;;;;;;;;5037184;28;20425;-79
2023/03/21 08:53:51;;;;;;;25.42;15.50;;;;;;;;;;5020516;28;21253;-78
2023/03/21 08:56:17;;;;;;;25.10;16.48;;;;;;;;;;5049156;28;20435;-79
2023/03/21 08:58:43;;;;;;;28.70;17.80;;;;;;;;;;5023069;28;20407;-80
2023/03/21 09:01:10;;;;;;;29.80;18.48;;;;;;;;;;5052379;28;20911;-79
2023/03/21 09:03:39;;;;;;;31.13;18.58;;;;;;;;;;5054584;28;20419;-77
2023/03/21 09:06:05;;;;;;;29.77;18.92;;;;;;;;;;5050332;28;20930;-78
2023/03/21 09:08:31;;;;;;;28.00;19.20;;;;;;;;;;5015384;28;20416;-78
2023/03/21 09:10:57;;;;;;;28.92;18.67;;;;;;;;;;5045432;28;20431;-78
2023/03/21 09:13:24;;;;;;;32.50;19.25;;;;;;;;;;5015393;28;20419;-78
2023/03/21 09:15:50;;;;;;;29.50;19.23;;;;;;;;;;5049238;28;20420;-78
2023/03/21 09:18:20;;;;;;;27.90;18.33;;;;;;;;;;5036837;28;20776;-78
2023/03/21 09:20:49;;;;;;;31.33;20.75;;;;;;;;;;5054713;28;20427;-78
2023/03/21 09:23:15;;;;;;;29.23;20.45;;;;;;;;;;5037100;28;20737;-78
2023/03/21 09:25:44;;;;;;;32.53;21.25;;;;;;;;;;5051374;28;20469;-78
2023/03/21 09:28:12;;;;;;;30.70;21.13;;;;;;;;;;5052558;28;20482;-78
2023/03/21 09:30:38;;;;;;;42.60;23.40;;;;;;;;;;5050221;28;20502;-78
2023/03/21 09:33:11;;;;;;;33.88;22.13;;;;;;;;;;5033609;28;20510;-78
2023/03/21 09:35:38;;;;;;;35.83;21.77;;;;;;;;;;5024566;28;20808;-82
2023/03/21 09:38:04;;;;;;;37.88;23.13;;;;;;;;;;5036794;28;20913;-81
2023/03/21 09:40:40;;;;;;;34.53;22.90;;;;;;;;;;5036088;28;20447;-81
2023/03/21 09:43:14;;;;;;;33.20;22.23;;;;;;;;;;5032592;28;20443;-81
2023/03/21 09:46:14;;;;;;;33.13;22.30;;;;;;;;;;5054070;28;20481;-81
2023/03/21 09:48:46;;;;;;;34.38;21.65;;;;;;;;;;5018613;28;20427;-81
2023/03/21 09:51:15;;;;;;;35.63;23.67;;;;;;;;;;5033717;28;20519;-80
2023/03/21 09:53:42;;;;;;;34.60;22.00;;;;;;;;;;5035180;28;20966;-81
2023/03/21 09:56:12;;;;;;;34.05;21.40;;;;;;;;;;5032268;28;20917;-79
2023/03/21 09:58:41;;;;;;;35.67;22.15;;;;;;;;;;5052379;28;20413;-81
2023/03/21 10:01:21;;;;;;;34.47;21.38;;;;;;;;;;5033560;28;21140;-81
2023/03/21 10:03:49;;;;;;;32.70;20.88;;;;;;;;;;5037006;28;20421;-81
2023/03/21 10:06:16;;;;;;;36.55;21.95;;;;;;;;;;5041639;28;20428;-81
2023/03/21 10:08:44;;;;;;;34.75;21.15;;;;;;;;;;5051551;28;20449;-80
2023/03/21 10:11:14;;;;;;;31.42;20.88;;;;;;;;;;5052156;28;20973;-81
2023/03/21 10:13:49;;;;;;;32.13;19.60;;;;;;;;;;5053088;28;20438;-81
2023/03/21 10:16:18;;;;;;;32.80;20.40;;;;;;;;;;5048633;28;20923;-81
2023/03/21 10:18:45;;;;;;;31.50;19.73;;;;;;;;;;5028144;28;20419;-82
2023/03/21 10:21:15;;;;;;;29.70;19.75;;;;;;;;;;5035665;28;20427;-82
2023/03/21 10:23:42;;;;;;;32.50;18.40;;;;;;;;;;5051448;28;20913;-81
2023/03/21 10:26:08;;;;;;;28.33;18.00;;;;;;;;;;5038393;28;20450;-82
2023/03/21 10:28:40;;;;;;;31.45;18.95;;;;;;;;;;5033232;28;20427;-81
2023/03/21 10:31:10;;;;;;;29.70;17.88;;;9.80;99.90;;;;;;5053951;28;20500;-81
2023/03/21 10:33:36;;;;;;;29.00;17.67;;;;;;;;;;5049630;28;20415;-81
2023/03/21 10:36:05;;;;;;;29.10;17.13;;;;;;;;;;5051353;28;20451;-81
2023/03/21 10:38:31;;;;;;;30.80;17.90;;;;;;;;;;5037796;28;20423;-82
2023/03/21 10:40:57;;;;;;;31.63;16.90;;;;;;;;;;5038284;28;20466;-81
2023/03/21 10:43:33;;;;;;;28.85;17.08;;;;;;;;;;5041168;28;20433;-81
2023/03/21 10:46:04;;;;;;;29.92;19.38;;;;;;;;;;5029382;28;20436;-81
2023/03/21 10:48:34;;;;;;;26.08;16.10;;;;;;;;;;5046329;28;20424;-81
2023/03/21 10:51:01;;;;;;;24.08;14.95;;;;;;;;;;5033933;28;20412;-82
2023/03/21 10:53:31;;;;;;;21.77;14.90;;;10.60;99.90;;;;;;5050630;28;20415;-83
2023/03/21 10:55:59;;;;;;;22.95;14.48;;;;;;;;;;5026626;28;20484;-83
2023/03/21 10:58:27;;;;;;;22.33;13.93;;;;;;;;;;5042672;28;20415;-82
2023/03/21 11:00:56;;;;;;;22.13;14.23;;;;;;;;;;5047355;28;20428;-78
2023/03/21 11:03:22;;;;;;;21.80;13.73;;;;;;;;;;5039489;28;20426;-78
2023/03/21 11:05:54;;;;;;;23.13;14.65;;;10.90;99.90;;;;;;5054073;28;20815;-78
2023/03/21 11:08:20;;;;;;;21.60;13.77;;;;;;;;;;5052927;28;20510;-78
2023/03/21 11:10:58;;;;;;;20.17;12.90;;;;;;;;;;5054186;28;20813;-79
2023/03/21 11:13:33;;;;;;;18.92;12.88;;;;;;;;;;5043442;28;20458;-77
2023/03/21 11:16:05;;;;;;;20.75;12.95;;;;;;;;;;5047371;28;20426;-78
2023/03/21 11:18:34;;;;;;;20.50;12.38;;;;;;;;;;5053193;28;20771;-78
2023/03/21 11:21:05;;;;;;;19.13;12.02;;;;;;;;;;5037814;28;20515;-78
2023/03/21 11:23:33;;;;;;;21.42;12.13;;;;;;;;;;5033598;28;20417;-78
2023/03/21 11:26:01;;;;;;;20.05;12.13;;;11.20;99.90;;;;;;5054220;28;20494;-78
2023/03/21 11:28:37;;;;;;;20.00;11.85;;;;;;;;;;5050742;28;20458;-77
2023/03/21 11:31:05;;;;;;;22.35;12.23;;;;;;;;;;5037344;28;20436;-78
2023/03/21 11:33:37;;;;;;;22.27;11.77;;;;;;;;;;5053811;28;20451;-77
2023/03/21 11:36:18;;;;;;;18.57;11.97;;;;;;;;;;5023991;28;20431;-78
2023/03/21 11:38:57;;;;;;;19.15;11.68;;;11.30;99.90;;;;;;5051422;28;20487;-77
2023/03/21 11:41:25;;;;;;;20.88;12.15;;;;;;;;;;5031356;28;20441;-77
2023/03/21 11:43:52;;;;;;;18.90;11.57;;;;;;;;;;5037144;28;20528;-78
2023/03/21 11:46:22;;;;;;;19.33;11.93;;;;;;;;;;5047066;28;20438;-76
2023/03/21 11:48:48;;;;;;;18.13;11.23;;;;;;;;;;5040737;28;20424;-76
2023/03/21 11:51:14;;;;;;;17.70;11.00;;;;;;;;;;5049108;28;20467;-75
2023/03/21 11:53:41;;;;;;;20.10;11.40;;;;;;;;;;5040213;28;20424;-76
2023/03/21 11:56:31;;;;;;;19.60;11.53;;;11.50;99.90;;;;;;5048533;28;20516;-76
2023/03/21 11:59:03;;;;;;;19.30;11.32;;;;;;;;;;5021354;28;20424;-76
2023/03/21 12:01:56;;;;;;;18.50;11.17;;;11.20;99.90;;;;;;5033554;28;20444;-76
2023/03/21 12:04:41;;;;;;;17.27;11.13;;;;;;;;;;5034101;28;20435;-76
2023/03/21 12:07:25;;;;;;;17.73;10.43;;;;;;;;;;5032912;28;20425;-76
2023/03/21 12:09:54;;;;;;;16.33;9.63;;;;;;;;;;5049706;28;20421;-76
2023/03/21 12:12:20;;;;;;;18.45;10.40;;;;;;;;;;5050776;28;20925;-76
2023/03/21 12:15:05;;;;;;;18.57;10.40;;;;;;;;;;5046308;28;20424;-76
2023/03/21 12:17:46;;;;;;;16.77;9.50;;;;;;;;;;5032742;28;20947;-77
2023/03/21 12:20:31;;;;;;;17.20;9.88;;;11.40;99.90;;;;;;5051832;28;20429;-76
2023/03/21 12:23:16;;;;;;;16.48;9.38;;;;;;;;;;5037084;28;20421;-75
2023/03/21 12:26:09;;;;;;;16.75;10.35;;;;;;;;;;5038673;28;20425;-77
2023/03/21 12:29:05;;;;;;;14.80;9.20;;;11.40;99.90;;;;;;5025836;28;20429;-76
2023/03/21 12:31:31;;;;;;;15.18;9.80;;;;;;;;;;5045124;28;20461;-76
2023/03/21 12:34:27;;;;;;;14.90;9.73;;;;;;;;;;5052151;28;20785;-76
2023/03/21 12:37:06;;;;;;;17.42;9.90;;;;;;;;;;5016141;28;20425;-78
2023/03/21 12:39:35;;;;;;;12.98;8.50;;;;;;;;;;5051778;28;20427;-75
2023/03/21 12:42:21;;;;;;;17.42;9.50;;;;;;;;;;5057139;28;20429;-75
2023/03/21 12:45:10;;;;;;;13.80;9.15;;;;;;;;;;5055490;28;20417;-75
2023/03/21 12:47:40;;;;;;;16.85;9.60;;;;;;;;;;5066033;28;20419;-75
2023/03/21 12:50:35;;;;;;;18.58;9.55;;;11.90;99.90;;;;;;5038656;28;20434;-75
2023/03/21 12:53:06;;;;;;;14.98;8.90;;;;;;;;;;5059733;28;20933;-75
2023/03/21 12:55:33;;;;;;;15.55;8.65;;;;;;;;;;5059671;28;20424;-74
2023/03/21 12:58:27;;;;;;;14.32;8.98;;;;;;;;;;5060247;28;20485;-77
2023/03/21 13:00:55;;;;;;;16.20;9.23;;;;;;;;;;5054723;28;20427;-75
2023/03/21 13:03:25;;;;;;;16.10;9.10;;;;;;;;;;5059059;28;20423;-75
2023/03/21 13:05:57;;;;;;;18.10;9.73;;;12.10;99.90;;;;;;5061545;28;20903;-76
2023/03/21 13:08:57;;;;;;;14.52;9.27;;;12.30;99.90;;;;;;5059813;28;20419;-75
2023/03/21 13:11:26;;;;;;;16.35;10.00;;;12.30;99.90;;;;;;5020691;28;20431;-75
2023/03/21 13:14:08;;;;;;;18.15;8.75;;;;;;;;;;5055066;28;21852;-76
2023/03/21 13:17:17;;;;;;;16.75;9.00;;;12.40;99.90;;;;;;5055226;28;20425;-76
2023/03/21 13:19:47;;;;;;;15.05;8.77;;;;;;;;;;5036800;28;20442;-76
2023/03/21 13:22:31;;;;;;;16.00;8.88;;;;;;;;;;5037527;28;20433;-76
2023/03/21 13:25:18;;;;;;;17.45;8.85;;;;;;;;;;5051435;28;20426;-75
2023/03/21 13:27:50;;;;;;;15.43;9.25;;;;;;;;;;5068998;28;20416;-76
2023/03/21 13:30:27;;;;;;;15.48;9.27;;;12.60;99.90;;;;;;5053090;28;20423;-76
2023/03/21 13:33:04;;;;;;;16.00;9.63;;;;;;;;;;5043039;28;20423;-76
2023/03/21 13:35:36;;;;;;;16.30;9.73;;;;;;;;;;5058027;28;20422;-76
2023/03/21 13:38:07;;;;;;;18.35;9.82;;;;;;;;;;5071196;28;20426;-75
2023/03/21 13:40:43;;;;;;;15.60;9.88;;;;;;;;;;5056231;28;20504;-76
2023/03/21 13:43:30;;;;;;;16.85;9.93;;;12.20;99.90;;;;;;5059587;28;20442;-76
2023/03/21 13:46:04;;;;;;;16.60;9.85;;;;;;;;;;5058641;28;20486;-76
2023/03/21 13:48:31;;;;;;;19.08;10.35;;;;;;;;;;5052293;28;20423;-77
2023/03/21 13:51:03;;;;;;;17.90;9.80;;;12.70;99.90;;;;;;5039608;28;20445;-76
2023/03/21 13:53:31;;;;;;;18.65;10.10;;;12.50;99.90;;;;;;5052142;28;20514;-77
2023/03/21 13:56:18;;;;;;;14.93;10.30;;;12.40;99.90;;;;;;5054844;28;20419;-77
2023/03/21 13:58:47;;;;;;;14.07;10.38;;;;;;;;;;5058709;28;20412;-76
2023/03/21 14:01:20;;;;;;;14.52;9.98;;;;;;;;;;5049054;28;20427;-77
2023/03/21 14:03:47;;;;;;;16.17;10.27;;;;;;;;;;5052555;28;20516;-76
2023/03/21 14:06:16;;;;;;;16.55;10.48;;;12.60;99.90;;;;;;5033699;28;20431;-77
2023/03/21 14:08:44;;;;;;;16.35;10.40;;;;;;;;;;5053639;28;20437;-78
2023/03/21 14:11:13;;;;;;;15.20;9.67;;;;;;;;;;5067378;28;20424;-77
2023/03/21 14:13:41;;;;;;;13.45;9.27;;;;;;;;;;5050045;28;20874;-78
2023/03/21 14:16:16;;;;;;;15.80;9.73;;;;;;;;;;5053011;28;20506;-78
2023/03/21 14:18:46;;;;;;;17.67;9.85;;;;;;;;;;5034579;28;20920;-77
2023/03/21 14:21:19;;;;;;;14.00;9.70;;;;;;;;;;5044073;28;20432;-77
2023/03/21 14:23:45;;;;;;;17.38;9.93;;;;;;;;;;5052973;28;20454;-78
2023/03/21 14:26:11;;;;;;;15.27;9.90;;;;;;;;;;5017058;28;20740;-78
2023/03/21 14:28:38;;;;;;;15.85;9.85;;;;;;;;;;5048392;28;20443;-77